Time;durP1;ratioP1;P1;durP2;ratioP2;P2;SDS_P1;SDS_P2;PMS_P1;PMS_P2;Temp;Humidity;BMP_temperature;BMP_pressure;BME280_temperature;BME280_humidity;BME280_pressure;Samples;Min_cycle;Max_cycle;Signal;HPM_P1;HPM_P2
2021/07/11 00:00:12;;;;;;;2.90;2.70;;;16.80;99.90;16.40;96743.00;;;;5108566;28;20346;-68
2021/07/11 00:03:02;;;;;;;3.13;2.77;;;16.80;99.90;16.60;96747.00;;;;5107553;28;20227;-67
2021/07/11 00:05:51;;;;;;;3.53;2.70;;;16.80;99.90;16.50;96743.00;;;;5107999;28;20241;-66
2021/07/11 00:08:40;;;;;;;3.23;2.93;;;16.90;99.90;16.60;96745.00;;;;5108463;28;20202;-68
2021/07/11 00:11:29;;;;;;;2.93;2.73;;;16.90;99.90;16.60;96747.00;;;;5107477;28;20202;-68
2021/07/11 00:14:17;;;;;;;3.53;2.90;;;16.90;99.90;16.50;96744.00;;;;5108082;28;20206;-67
2021/07/11 00:17:06;;;;;;;4.10;2.83;;;16.90;99.90;16.20;96741.00;;;;5107885;28;20559;-68
2021/07/11 00:19:56;;;;;;;4.00;3.40;;;16.80;99.90;16.20;96734.00;;;;5106852;28;20222;-67
2021/07/11 00:22:45;;;;;;;3.63;3.20;;;16.70;99.90;16.30;96735.00;;;;5108024;28;20230;-68
2021/07/11 00:25:34;;;;;;;5.00;3.10;;;16.70;99.90;16.20;96730.00;;;;5108009;28;20198;-69
2021/07/11 00:28:23;;;;;;;3.43;3.13;;;16.70;99.90;16.00;96732.00;;;;5106892;28;20206;-69
2021/07/11 00:31:12;;;;;;;6.13;3.40;;;16.60;99.90;15.70;96726.00;;;;5106383;28;20206;-69
2021/07/11 00:34:01;;;;;;;3.00;2.70;;;16.40;99.90;15.60;96724.00;;;;5096792;28;20198;-69
2021/07/11 00:36:51;;;;;;;4.00;3.70;;;16.30;99.90;15.40;96727.00;;;;5107590;28;20280;-69
2021/07/11 00:39:40;;;;;;;3.90;3.60;;;16.20;99.90;15.20;96719.00;;;;5107703;28;20218;-69
2021/07/11 00:42:29;;;;;;;3.37;3.10;;;16.00;99.90;15.30;96726.00;;;;5106496;28;20328;-69
2021/07/11 00:45:17;;;;;;;3.60;3.00;;;15.90;99.90;15.40;96720.00;;;;5107625;28;20205;-69
2021/07/11 00:48:08;;;;;;;3.80;3.10;;;15.80;99.90;15.40;96715.00;;;;5107271;28;20213;-69
2021/07/11 00:50:57;;;;;;;2.77;2.57;;;15.80;99.90;15.50;96718.00;;;;5106505;28;20210;-68
2021/07/11 00:53:52;;;;;;;3.00;2.57;;;15.80;99.90;15.50;96716.00;;;;5107522;28;20577;-70
2021/07/11 00:56:44;;;;;;;5.07;2.60;;;15.80;99.90;15.60;96708.00;;;;5106964;28;20203;-69
2021/07/11 00:59:33;;;;;;;3.20;2.97;;;15.80;99.90;15.70;96708.00;;;;5106488;28;20209;-69
2021/07/11 01:02:31;;;;;;;3.10;2.60;;;15.90;99.90;15.80;96709.00;;;;5106107;28;20673;-69
2021/07/11 01:05:23;;;;;;;3.47;3.17;;;16.00;99.90;15.60;96721.00;;;;5106692;28;20191;-69
2021/07/11 01:08:16;;;;;;;3.17;2.87;;;16.00;99.90;15.40;96711.00;;;;5106820;28;20213;-69
2021/07/11 01:11:10;;;;;;;2.67;2.47;;;15.90;99.90;15.10;96710.00;;;;5105499;28;20199;-69
2021/07/11 01:14:00;;;;;;;3.47;2.60;;;15.80;99.90;14.90;96708.00;;;;5106632;28;20234;-69
2021/07/11 01:16:50;;;;;;;5.03;3.00;;;15.70;99.90;15.00;96714.00;;;;5106137;28;20210;-69
2021/07/11 01:19:56;;;;;;;2.53;2.33;;;15.60;99.90;14.80;96708.00;;;;5106873;28;20207;-69
2021/07/11 01:22:51;;;;;;;4.10;2.40;;;15.50;99.90;14.80;96706.00;;;;5107144;28;20226;-69
2021/07/11 01:25:44;;;;;;;4.30;3.13;;;15.40;99.90;14.90;96704.00;;;;5106430;28;20665;-68
2021/07/11 01:28:33;;;;;;;2.97;2.77;;;15.30;99.90;14.70;96697.00;;;;5106289;28;20217;-69
2021/07/11 01:31:24;;;;;;;3.60;3.00;;;15.30;99.90;14.70;96695.00;;;;5105059;28;20582;-69
2021/07/11 01:34:14;;;;;;;3.10;2.80;;;15.30;99.90;14.90;96693.00;;;;5097409;28;20194;-68
2021/07/11 01:37:03;;;;;;;3.07;2.87;;;15.20;99.90;15.20;96684.00;;;;5104764;28;20689;-70
2021/07/11 01:39:52;;;;;;;2.80;2.50;;;15.30;99.90;15.30;96683.00;;;;5104459;28;20711;-69
2021/07/11 01:42:43;;;;;;;3.20;2.63;;;15.40;99.90;15.00;96686.00;;;;5106668;28;20223;-68
2021/07/11 01:45:32;;;;;;;2.80;2.60;;;15.40;99.90;14.80;96680.00;;;;5106711;28;20199;-69
2021/07/11 01:48:22;;;;;;;3.00;2.67;;;15.40;99.90;14.60;96683.00;;;;5106295;28;20223;-69
2021/07/11 01:51:11;;;;;;;2.60;2.37;;;15.30;99.90;14.40;96677.00;;;;5105424;28;20213;-69
2021/07/11 01:54:00;;;;;;;2.93;2.73;;;15.10;99.90;14.30;96675.00;;;;5106660;28;20582;-69
2021/07/11 01:56:49;;;;;;;3.40;3.10;;;15.00;99.90;14.30;96673.00;;;;5105456;28;20198;-69
2021/07/11 01:59:39;;;;;;;5.37;2.90;;;14.90;99.90;14.50;96668.00;;;;5105605;28;20206;-70
2021/07/11 02:02:30;;;;;;;2.60;2.40;;;14.90;99.90;14.60;96679.00;;;;5105372;28;20249;-69
2021/07/11 02:05:19;;;;;;;4.07;2.80;;;14.90;99.90;14.60;96672.00;;;;5105621;28;20229;-69
2021/07/11 02:08:08;;;;;;;3.10;2.40;;;14.90;99.90;14.80;96674.00;;;;5105787;28;20229;-69
2021/07/11 02:10:58;;;;;;;4.70;2.80;;;15.00;99.90;14.70;96675.00;;;;5105707;28;20709;-69
2021/07/11 02:13:51;;;;;;;2.97;2.17;;;15.10;99.90;14.70;96672.00;;;;5105880;28;20206;-69
2021/07/11 02:16:48;;;;;;;3.00;2.80;;;15.10;99.90;14.60;96669.00;;;;5103815;28;20187;-70
2021/07/11 02:19:39;;;;;;;2.80;2.60;;;15.00;99.90;14.50;96681.00;;;;5098332;28;20210;-70
2021/07/11 02:22:29;;;;;;;2.73;2.30;;;15.00;99.90;14.30;96677.00;;;;5095623;28;20228;-69
2021/07/11 02:25:20;;;;;;;5.43;2.60;;;14.90;99.90;14.00;96668.00;;;;5105805;28;20211;-68
2021/07/11 02:28:09;;;;;;;2.57;2.43;;;14.80;99.90;14.10;96669.00;;;;5104878;28;20603;-68
2021/07/11 02:31:00;;;;;;;2.87;2.60;;;14.70;99.90;14.00;96669.00;;;;5105211;28;20203;-69
2021/07/11 02:33:51;;;;;;;5.63;2.43;;;14.60;99.90;14.30;96667.00;;;;5094169;28;20203;-69
2021/07/11 02:36:44;;;;;;;3.13;2.90;;;14.70;99.90;14.50;96676.00;;;;5105717;28;20206;-70
2021/07/11 02:39:33;;;;;;;2.50;2.30;;;14.70;99.90;14.50;96673.00;;;;5105851;28;20206;-70
2021/07/11 02:42:24;;;;;;;2.67;2.27;;;14.80;99.90;14.30;96663.00;;;;5105459;28;20226;-69
2021/07/11 02:45:14;;;;;;;3.53;2.60;;;14.80;99.90;14.10;96665.00;;;;5106127;28;20205;-70
2021/07/11 02:48:04;;;;;;;2.73;2.53;;;14.80;99.90;14.20;96674.00;;;;5105271;28;20226;-70
2021/07/11 02:50:56;;;;;;;3.10;2.10;;;14.70;99.90;14.30;96675.00;;;;5105614;28;20199;-69
2021/07/11 02:53:47;;;;;;;3.07;2.53;;;14.70;99.90;14.40;96678.00;;;;5109790;28;20210;-69
2021/07/11 02:56:39;;;;;;;2.70;2.50;;;14.70;99.90;14.60;96670.00;;;;5109107;28;20197;-69
2021/07/11 02:59:29;;;;;;;2.93;2.27;;;14.80;99.90;14.70;96679.00;;;;5109127;28;20213;-68
2021/07/11 03:02:20;;;;;;;3.60;2.50;;;14.80;99.90;14.40;96672.00;;;;5108156;28;20220;-67
2021/07/11 03:05:12;;;;;;;2.80;2.60;;;14.90;99.90;14.50;96682.00;;;;5109300;28;20202;-69
2021/07/11 03:08:03;;;;;;;3.00;2.07;;;14.90;99.90;14.80;96668.00;;;;5109503;28;20226;-69
2021/07/11 03:10:52;;;;;;;3.83;1.77;;;14.90;99.90;14.90;96672.00;;;;5108386;28;20203;-66
2021/07/11 03:13:42;;;;;;;2.60;2.40;;;15.10;99.90;15.00;96677.00;;;;5109052;28;20568;-69
2021/07/11 03:16:31;;;;;;;2.40;2.17;;;15.10;99.90;14.90;96674.00;;;;5109399;28;20199;-69
2021/07/11 03:19:21;;;;;;;2.30;2.10;;;15.20;99.90;14.70;96673.00;;;;5109421;28;20577;-69
2021/07/11 03:22:10;;;;;;;4.33;2.57;;;15.20;99.90;14.80;96680.00;;;;5108464;28;20232;-69
2021/07/11 03:25:04;;;;;;;2.20;2.00;;;15.20;99.90;14.90;96677.00;;;;5109206;28;20678;-68
2021/07/11 03:27:54;;;;;;;2.10;2.00;;;15.20;99.90;14.90;96685.00;;;;5107096;28;20214;-69
2021/07/11 03:30:47;;;;;;;2.93;2.73;;;15.20;99.90;14.70;96685.00;;;;5102868;28;20195;-69
2021/07/11 03:33:42;;;;;;;2.47;2.27;;;15.20;99.90;14.70;96672.00;;;;5096301;28;20671;-69
2021/07/11 03:36:33;;;;;;;4.23;1.97;;;15.20;99.90;14.70;96675.00;;;;5108255;28;20207;-69
2021/07/11 03:39:24;;;;;;;6.10;2.70;;;15.10;99.90;14.80;96679.00;;;;5109385;28;20211;-69
2021/07/11 03:42:17;;;;;;;5.80;3.80;;;15.10;99.90;15.00;96673.00;;;;5108629;28;20233;-68
2021/07/11 03:45:09;;;;;;;2.73;1.90;;;15.20;99.90;14.90;96686.00;;;;5108202;28;20191;-69
2021/07/11 03:48:05;;;;;;;2.37;2.17;;;15.20;99.90;14.80;96682.00;;;;5108091;28;20238;-69
2021/07/11 03:50:58;;;;;;;2.50;2.30;;;15.20;99.90;14.80;96681.00;;;;5108231;28;20202;-69
2021/07/11 03:53:49;;;;;;;2.17;2.03;;;15.30;99.90;14.90;96684.00;;;;5107426;28;20199;-68
2021/07/11 03:56:39;;;;;;;2.13;1.93;;;15.30;99.90;15.00;96687.00;;;;5095607;28;20203;-70
2021/07/11 03:59:32;;;;;;;3.07;2.20;;;15.30;99.90;15.20;96679.00;;;;5107875;28;20228;-69
2021/07/11 04:02:22;;;;;;;3.17;2.03;;;15.40;99.90;15.20;96674.00;;;;5107007;28;20222;-69
2021/07/11 04:05:12;;;;;;;2.37;2.23;;;15.40;99.90;15.20;96676.00;;;;5108257;28;20199;-69
2021/07/11 04:08:03;;;;;;;2.20;2.00;;;15.50;99.90;15.20;96681.00;;;;5108203;28;20226;-69
2021/07/11 04:10:52;;;;;;;2.40;2.20;;;15.50;99.90;15.20;96683.00;;;;5107194;28;20210;-68
2021/07/11 04:13:41;;;;;;;2.10;2.00;;;15.50;99.90;15.40;96677.00;;;;5108306;28;20209;-69
2021/07/11 04:16:35;;;;;;;2.30;2.10;;;15.50;99.90;15.50;96678.00;;;;5107915;28;20202;-69
2021/07/11 04:19:28;;;;;;;3.50;2.27;;;15.60;99.90;15.70;96676.00;;;;5107510;28;20206;-69
2021/07/11 04:22:18;;;;;;;2.50;2.30;;;15.70;99.90;15.70;96672.00;;;;5107886;28;20222;-68
2021/07/11 04:25:10;;;;;;;2.83;2.00;;;15.80;99.90;15.70;96669.00;;;;5107651;28;20206;-69
2021/07/11 04:28:00;;;;;;;2.23;2.03;;;15.80;99.90;15.50;96668.00;;;;5107851;28;20605;-69
2021/07/11 04:30:49;;;;;;;3.60;2.03;;;15.90;99.90;15.40;96678.00;;;;5107208;28;20203;-70
2021/07/11 04:33:42;;;;;;;2.70;2.00;;;15.80;99.90;15.50;96679.00;;;;5105493;28;20605;-70
2021/07/11 04:36:31;;;;;;;2.50;2.30;;;15.90;99.90;15.40;96674.00;;;;5107226;28;20576;-69
2021/07/11 04:39:20;;;;;;;2.43;2.23;;;15.90;99.90;15.60;96663.00;;;;5106404;28;20206;-69
2021/07/11 04:42:10;;;;;;;5.93;2.30;;;15.80;99.90;15.60;96658.00;;;;5107506;28;20225;-69
2021/07/11 04:45:01;;;;;;;3.40;2.10;;;15.90;99.90;15.40;96658.00;;;;5107064;28;20203;-69
2021/07/11 04:47:50;;;;;;;2.20;2.00;;;15.90;99.90;15.60;96654.00;;;;5107071;28;20229;-70
2021/07/11 04:50:43;;;;;;;2.47;2.27;;;15.90;99.90;15.70;96657.00;;;;5107103;28;20276;-69
2021/07/11 04:53:34;;;;;;;1.87;1.77;;;15.90;99.90;15.80;96647.00;;;;5107857;28;20561;-68
2021/07/11 04:56:23;;;;;;;2.10;1.90;;;16.00;99.90;15.90;96639.00;;;;5096390;28;20517;-68
2021/07/11 04:59:12;;;;;;;2.10;1.90;;;16.10;99.90;16.10;96634.00;;;;5107622;28;20210;-66
2021/07/11 05:02:00;;;;;;;3.10;1.93;;;16.20;99.90;16.20;96648.00;;;;5106839;28;20233;-67
2021/07/11 05:04:49;;;;;;;2.20;2.00;;;16.30;99.90;16.20;96640.00;;;;5108424;28;20195;-69
2021/07/11 05:07:40;;;;;;;2.70;2.50;;;16.40;99.90;16.40;96648.00;;;;5095156;28;20225;-68
2021/07/11 05:10:29;;;;;;;2.93;2.57;;;16.50;99.90;16.60;96635.00;;;;5107723;28;20194;-69
2021/07/11 05:13:18;;;;;;;4.00;2.50;;;16.70;99.90;16.80;96638.00;;;;5106997;28;20241;-70
2021/07/11 05:16:07;;;;;;;2.60;2.07;;;16.80;99.90;16.60;96633.00;;;;5105248;28;20665;-69
2021/07/11 05:18:56;;;;;;;2.30;2.10;;;16.90;99.90;16.70;96637.00;;;;5106211;28;20602;-69
2021/07/11 05:21:45;;;;;;;3.60;2.03;;;16.90;99.90;16.60;96632.00;;;;5106265;28;20327;-69
2021/07/11 05:24:35;;;;;;;2.37;2.17;;;16.90;99.90;16.70;96630.00;;;;5107555;28;20210;-69
2021/07/11 05:27:25;;;;;;;3.30;2.73;;;16.90;99.90;16.70;96635.00;;;;5107595;28;20199;-67
2021/07/11 05:30:16;;;;;;;3.33;2.10;;;17.00;99.90;16.90;96641.00;;;;5106040;28;20222;-70
2021/07/11 05:33:05;;;;;;;2.50;2.30;;;17.00;99.90;16.90;96628.00;;;;5106087;28;20218;-69
2021/07/11 05:35:55;;;;;;;3.47;2.33;;;17.10;99.90;17.10;96628.00;;;;5106231;28;20195;-69
2021/07/11 05:38:44;;;;;;;2.40;2.20;;;17.20;99.90;17.20;96629.00;;;;5105469;28;20202;-68
2021/07/11 05:41:34;;;;;;;2.37;2.17;;;17.30;99.90;17.40;96632.00;;;;5105588;28;20222;-68
2021/07/11 05:44:23;;;;;;;3.27;2.50;;;17.40;99.90;17.60;96641.00;;;;5106691;28;20202;-67
2021/07/11 05:47:12;;;;;;;2.77;2.57;;;17.60;99.90;17.50;96639.00;;;;5104704;28;20195;-70
2021/07/11 05:50:01;;;;;;;3.13;2.40;;;17.70;99.90;17.70;96646.00;;;;5106003;28;20601;-69
2021/07/11 05:52:50;;;;;;;3.00;2.47;;;17.80;99.90;17.80;96644.00;;;;5106403;28;20226;-67
2021/07/11 05:55:39;;;;;;;3.40;2.10;;;17.90;99.90;17.90;96647.00;;;;5106472;28;20669;-70
2021/07/11 05:58:29;;;;;;;2.70;2.50;;;18.00;99.90;17.80;96645.00;;;;5106206;28;20514;-68
2021/07/11 06:01:18;;;;;;;3.13;2.83;;;18.00;99.90;18.00;96650.00;;;;5105794;28;20194;-69
2021/07/11 06:04:07;;;;;;;2.70;2.50;;;18.10;99.90;18.10;96653.00;;;;5106340;28;20205;-68
2021/07/11 06:06:55;;;;;;;2.30;2.10;;;18.20;99.90;18.20;96649.00;;;;5106224;28;20190;-66
2021/07/11 06:09:44;;;;;;;2.90;2.60;;;18.30;99.90;18.20;96651.00;;;;5105204;28;20238;-69
2021/07/11 06:12:34;;;;;;;2.90;2.53;;;18.40;99.90;18.50;96661.00;;;;5106517;28;20222;-68
2021/07/11 06:15:24;;;;;;;2.80;2.47;;;18.50;99.90;18.70;96659.00;;;;5105596;28;20202;-69
2021/07/11 06:18:13;;;;;;;2.47;2.27;;;18.60;99.90;18.80;96663.00;;;;5105667;28;20273;-69
2021/07/11 06:21:02;;;;;;;3.17;2.30;;;18.70;99.90;19.20;96656.00;;;;5105035;28;20211;-68
2021/07/11 06:23:51;;;;;;;3.10;2.60;;;18.90;99.90;19.50;96659.00;;;;5105384;28;20194;-68
2021/07/11 06:26:39;;;;;;;2.63;2.43;;;19.20;99.90;19.80;96666.00;;;;5106237;28;20703;-68
2021/07/11 06:29:28;;;;;;;2.00;1.90;;;19.40;99.90;19.90;96656.00;;;;5105581;28;20241;-69
2021/07/11 06:32:19;;;;;;;4.50;2.23;;;19.70;99.90;20.40;96671.00;;;;5105729;28;20222;-67
2021/07/11 06:35:11;;;;;;;4.47;3.27;;;19.90;99.90;20.30;96670.00;;;;5105805;28;20237;-69
2021/07/11 06:38:00;;;;;;;2.67;2.37;;;20.20;99.90;20.40;96673.00;;;;5092318;28;20210;-69
2021/07/11 06:40:49;;;;;;;4.23;1.73;;;20.30;99.90;20.60;96677.00;;;;5105241;28;20202;-68
2021/07/11 06:43:38;;;;;;;3.33;2.00;;;20.50;99.90;20.70;96676.00;;;;5105480;28;20210;-68
2021/07/11 06:46:27;;;;;;;2.63;2.07;;;20.60;99.90;20.90;96674.00;;;;5104952;28;20203;-67
2021/07/11 06:49:17;;;;;;;4.27;2.40;;;20.70;99.90;20.90;96672.00;;;;5105897;28;20303;-68
2021/07/11 06:52:07;;;;;;;2.70;2.50;;;20.80;99.90;21.20;96661.00;;;;5104612;28;20222;-65
2021/07/11 06:54:56;;;;;;;2.20;1.80;;;21.00;99.90;21.70;96661.00;;;;5095398;28;20202;-67
2021/07/11 06:57:45;;;;;;;3.13;2.40;;;21.30;99.90;21.60;96660.00;;;;5105300;28;20688;-68
2021/07/11 07:00:34;;;;;;;2.40;2.20;;;21.50;99.90;21.60;96659.00;;;;5104963;28;20219;-67
2021/07/11 07:03:23;;;;;;;3.73;3.17;;;21.60;99.90;22.00;96666.00;;;;5105427;28;20272;-67
2021/07/11 07:06:13;;;;;;;2.30;2.10;;;21.80;99.90;22.00;96672.00;;;;5105328;28;20209;-67
2021/07/11 07:09:02;;;;;;;3.70;2.33;;;21.90;99.90;21.80;96666.00;;;;5105545;28;20600;-68
2021/07/11 07:11:51;;;;;;;2.37;2.17;;;22.00;99.90;22.20;96677.00;;;;5105138;28;20226;-68
2021/07/11 07:14:40;;;;;;;3.10;2.37;;;22.10;99.90;22.70;96683.00;;;;5103909;28;20623;-67
2021/07/11 07:17:29;;;;;;;1.70;1.60;;;22.30;99.90;22.40;96681.00;;;;5104645;28;20673;-67
2021/07/11 07:20:18;;;;;;;3.43;2.10;;;22.50;99.90;22.70;96679.00;;;;5105380;28;20210;-68
2021/07/11 07:23:08;;;;;;;3.17;2.10;;;22.60;99.90;22.90;96682.00;;;;5104530;28;20222;-68
2021/07/11 07:25:57;;;;;;;1.70;1.60;;;22.70;99.90;23.10;96687.00;;;;5093715;28;20201;-67
2021/07/11 07:28:45;;;;;;;2.03;1.70;;;22.80;99.90;23.20;96688.00;;;;5104438;28;20195;-67
2021/07/11 07:31:35;;;;;;;1.80;1.70;;;23.00;99.90;23.40;96683.00;;;;5105676;28;20223;-68
2021/07/11 07:34:24;;;;;;;3.33;2.03;;;23.10;99.90;23.20;96668.00;;;;5105285;28;20259;-67
2021/07/11 07:37:13;;;;;;;2.27;1.60;;;23.20;99.90;23.80;96687.00;;;;5094850;28;20592;-68
2021/07/11 07:40:05;;;;;;;1.57;1.37;;;23.40;99.90;23.80;96689.00;;;;5095984;28;20210;-66
2021/07/11 07:42:55;;;;;;;2.53;1.87;;;23.50;99.90;23.90;96692.00;;;;5107773;28;20222;-65
2021/07/11 07:45:44;;;;;;;4.00;1.83;;;23.70;99.90;23.80;96694.00;;;;5108580;28;20205;-65
2021/07/11 07:48:33;;;;;;;1.40;1.30;;;23.70;99.90;23.90;96701.00;;;;5105733;28;20199;-65
2021/07/11 07:51:22;;;;;;;1.90;1.70;;;23.80;99.70;23.80;96701.00;;;;5107465;28;20219;-65
2021/07/11 07:54:11;;;;;;;2.33;2.10;;;23.80;99.00;23.60;96700.00;;;;5109040;28;20201;-70
2021/07/11 07:57:01;;;;;;;2.47;1.80;;;23.80;97.90;23.50;96697.00;;;;5096636;28;20199;-65
2021/07/11 07:59:50;;;;;;;1.70;1.60;;;23.70;97.80;23.30;96697.00;;;;5108995;28;20209;-68
2021/07/11 08:02:39;;;;;;;1.43;1.30;;;23.50;97.40;23.40;96699.00;;;;5108809;28;20218;-66
2021/07/11 08:05:28;;;;;;;2.63;2.20;;;23.50;97.80;23.70;96695.00;;;;5108930;28;20195;-68
2021/07/11 08:08:17;;;;;;;2.40;1.77;;;23.50;98.10;23.80;96696.00;;;;5107878;28;20205;-67
2021/07/11 08:11:09;;;;;;;2.60;1.47;;;23.60;97.90;24.10;96693.00;;;;5107261;28;20219;-65
2021/07/11 08:14:00;;;;;;;2.87;1.47;;;23.80;97.40;24.40;96689.00;;;;5108601;28;20225;-67
2021/07/11 08:16:51;;;;;;;1.40;1.27;;;23.90;96.60;24.50;96695.00;;;;5107886;28;20207;-68
2021/07/11 08:19:40;;;;;;;2.07;1.87;;;24.20;95.40;25.10;96686.00;;;;5107616;28;20551;-67
2021/07/11 08:22:28;;;;;;;1.40;1.30;;;24.40;94.80;25.90;96662.00;;;;5107720;28;20226;-68
2021/07/11 08:25:18;;;;;;;1.50;1.40;;;24.90;94.30;26.30;96675.00;;;;5107355;28;20210;-68
2021/07/11 08:28:10;;;;;;;1.30;1.20;;;25.30;92.70;26.70;96663.00;;;;5108317;28;20589;-68
2021/07/11 08:35:27;;;;;;;1.50;1.40;;;26.20;90.00;27.20;96675.00;;;;5106876;28;20668;-67
2021/07/11 08:38:16;;;;;;;2.60;1.80;;;26.70;80.40;26.90;96701.00;;;;5094247;28;20209;-67
2021/07/11 08:41:07;;;;;;;1.40;1.30;;;26.80;79.20;26.70;96688.00;;;;5105928;28;20202;-68
2021/07/11 08:43:56;;;;;;;2.03;1.90;;;26.70;77.60;26.90;96673.00;;;;5106738;28;20662;-68
2021/07/11 08:46:45;;;;;;;1.80;1.10;;;26.70;77.00;27.20;96679.00;;;;5107033;28;20224;-69
2021/07/11 08:49:34;;;;;;;1.23;1.20;;;26.90;77.40;27.10;96680.00;;;;5104686;28;20207;-67
2021/07/11 08:52:24;;;;;;;3.63;1.23;;;27.00;73.50;26.70;96697.00;;;;5105805;28;20233;-67
2021/07/11 08:55:16;;;;;;;1.67;1.00;;;26.90;72.20;26.20;96694.00;;;;5095430;28;20196;-67
2021/07/11 08:58:08;;;;;;;2.43;1.43;;;26.70;71.60;26.10;96693.00;;;;5107259;28;20199;-68
2021/07/11 09:00:57;;;;;;;1.73;1.20;;;26.50;70.90;26.00;96693.00;;;;5104007;28;20202;-67
2021/07/11 09:03:46;;;;;;;2.50;1.40;;;26.30;71.30;25.90;96691.00;;;;5101743;28;20206;-68
2021/07/11 09:06:44;;;;;;;2.30;1.20;;;26.20;72.00;25.90;96691.00;;;;5107237;28;20204;-67
2021/07/11 09:09:36;;;;;;;2.37;1.20;;;26.10;73.10;25.80;96690.00;;;;5106629;28;20216;-67
2021/07/11 09:12:26;;;;;;;1.40;1.30;;;25.90;72.80;25.60;96696.00;;;;5101193;28;20237;-66
2021/07/11 09:15:31;;;;;;;2.27;1.57;;;25.90;72.40;25.50;96696.00;;;;5101985;28;20591;-66
2021/07/11 09:18:28;;;;;;;2.70;1.17;;;25.70;72.40;25.20;96702.00;;;;5102922;27;20220;-67
2021/07/11 09:21:17;;;;;;;2.20;1.33;;;25.60;72.20;25.40;96703.00;;;;5105204;28;20206;-66
2021/07/11 09:24:12;;;;;;;1.33;1.17;;;25.50;73.70;25.40;96706.00;;;;5106163;28;20197;-67
2021/07/11 09:27:11;;;;;;;1.80;1.53;;;25.50;74.10;25.20;96710.00;;;;5104104;28;20196;-66
2021/07/11 09:30:01;;;;;;;1.80;1.30;;;25.40;73.80;25.40;96709.00;;;;5104764;28;20203;-67
2021/07/11 09:32:58;;;;;;;1.20;1.00;;;25.40;74.80;25.50;96705.00;;;;5106752;28;20303;-67
2021/07/11 09:35:51;;;;;;;0.97;0.97;;;25.40;75.90;25.60;96704.00;;;;5104649;28;20223;-67
2021/07/11 09:38:42;;;;;;;1.10;1.00;;;25.50;76.10;25.70;96707.00;;;;5101863;28;20210;-67
2021/07/11 09:41:33;;;;;;;1.70;1.20;;;25.60;75.70;25.90;96687.00;;;;5101338;28;20269;-67
2021/07/11 09:44:25;;;;;;;2.93;1.20;;;25.70;75.20;26.40;96657.00;;;;5104159;28;20280;-66
2021/07/11 09:47:18;;;;;;;3.60;1.47;;;25.90;75.40;27.10;96681.00;;;;5105643;28;20201;-67
2021/07/11 09:50:12;;;;;;;1.83;0.97;;;26.30;75.20;27.50;96679.00;;;;5101297;28;20216;-67
2021/07/11 09:53:02;;;;;;;2.40;1.20;;;26.70;72.90;27.50;96681.00;;;;5091182;28;20219;-67
2021/07/11 09:55:51;;;;;;;1.20;1.10;;;26.90;72.20;27.70;96669.00;;;;5100511;28;20208;-67
2021/07/11 09:58:40;;;;;;;1.07;0.93;;;27.30;71.50;28.20;96656.00;;;;5100707;28;20660;-68
2021/07/11 10:01:31;;;;;;;1.80;1.30;;;27.70;66.40;27.10;96673.00;;;;5103520;28;20200;-69
2021/07/11 10:04:21;;;;;;;1.10;1.10;;;27.70;65.50;27.30;96681.00;;;;5105616;28;20209;-68
2021/07/11 10:07:10;;;;;;;2.63;1.33;;;27.50;67.60;27.80;96687.00;;;;5104539;28;20705;-68
2021/07/11 10:09:59;;;;;;;2.43;1.33;;;27.50;69.10;27.80;96684.00;;;;5105030;28;20216;-68
2021/07/11 10:12:50;;;;;;;1.97;1.23;;;27.60;69.70;27.70;96702.00;;;;5105316;28;20355;-69
2021/07/11 10:15:41;;;;;;;3.77;1.90;;;27.60;69.00;27.80;96705.00;;;;5104867;28;20196;-67
2021/07/11 10:18:32;;;;;;;4.00;1.00;;;27.60;69.60;27.70;96707.00;;;;5104702;28;20212;-67
2021/07/11 10:21:22;;;;;;;1.47;1.20;;;27.60;68.30;27.90;96711.00;;;;5103885;28;20209;-67
2021/07/11 10:24:21;;;;;;;1.43;0.93;;;27.70;68.80;28.10;96707.00;;;;5106531;28;20205;-68
2021/07/11 10:27:22;;;;;;;1.37;1.27;;;27.80;68.90;28.00;96720.00;;;;5104492;28;20689;-67
2021/07/11 10:30:13;;;;;;;3.63;1.20;;;27.80;68.10;27.70;96722.00;;;;5093680;28;20232;-68
2021/07/11 10:33:14;;;;;;;1.07;1.00;;;27.80;67.90;27.80;96718.00;;;;5105191;28;20229;-66
2021/07/11 10:36:06;;;;;;;1.93;1.40;;;27.70;68.10;27.70;96727.00;;;;5105029;28;20209;-67
2021/07/11 10:38:57;;;;;;;1.50;0.97;;;27.70;68.10;27.60;96720.00;;;;5093723;28;20688;-65
2021/07/11 10:41:50;;;;;;;1.43;1.00;;;27.60;67.90;27.40;96707.00;;;;5103180;28;20716;-66
2021/07/11 10:44:40;;;;;;;1.20;1.10;;;27.50;66.20;27.60;96709.00;;;;5105525;28;20600;-65
2021/07/11 10:47:29;;;;;;;1.33;1.23;;;27.50;65.50;28.00;96720.00;;;;5105311;28;20528;-67
2021/07/11 10:50:28;;;;;;;1.47;1.33;;;27.60;65.10;28.10;96701.00;;;;5091471;28;20240;-67
2021/07/11 10:53:19;;;;;;;1.23;1.13;;;27.70;67.60;28.10;96688.00;;;;5105136;28;20279;-66
2021/07/11 10:56:20;;;;;;;2.00;1.40;;;27.90;66.80;28.30;96695.00;;;;5103944;28;20209;-66
2021/07/11 10:59:08;;;;;;;1.10;1.00;;;28.00;66.90;28.10;96676.00;;;;5103966;28;20209;-68
2021/07/11 11:01:58;;;;;;;1.13;0.83;;;28.10;65.40;28.40;96691.00;;;;5093296;28;20265;-66
2021/07/11 11:04:59;;;;;;;2.30;1.20;;;28.30;65.40;28.00;96668.00;;;;5104762;28;20195;-67
2021/07/11 11:07:51;;;;;;;1.77;1.00;;;28.20;63.40;27.80;96677.00;;;;5102987;28;20209;-68
2021/07/11 11:10:43;;;;;;;1.40;1.30;;;28.20;62.10;26.90;96674.00;;;;5103698;28;20671;-68
2021/07/11 11:13:32;;;;;;;1.43;1.33;;;27.80;62.10;27.50;96668.00;;;;5108182;28;20225;-69
2021/07/11 11:16:21;;;;;;;3.67;1.40;;;27.70;64.00;27.30;96687.00;;;;5108309;28;20557;-70
2021/07/11 11:19:15;;;;;;;3.83;1.27;;;28.00;63.80;27.50;96682.00;;;;5107631;28;20201;-69
2021/07/11 11:22:05;;;;;;;1.57;1.00;;;27.50;64.80;27.80;96684.00;;;;5108475;28;20225;-69
2021/07/11 11:24:54;;;;;;;6.70;1.67;;;27.50;66.10;27.60;96684.00;;;;5102377;28;20224;-69
2021/07/11 11:27:44;;;;;;;1.30;1.20;;;27.50;65.30;27.90;96670.00;;;;5107891;28;20208;-70
2021/07/11 11:30:35;;;;;;;4.63;1.43;;;27.60;65.50;29.10;96619.00;;;;5106746;28;20198;-70
2021/07/11 11:33:24;;;;;;;1.20;1.07;;;28.10;66.20;30.00;96622.00;;;;5107316;28;20223;-70
2021/07/11 11:36:12;;;;;;;1.10;1.00;;;28.70;66.60;30.90;96623.00;;;;5104817;28;20223;-69
2021/07/11 11:39:05;;;;;;;1.47;1.37;;;29.40;64.10;31.50;96632.00;;;;5104367;28;20200;-68
2021/07/11 11:41:55;;;;;;;0.85;0.85;;;30.00;62.40;29.00;96625.00;;;;5102938;28;20219;-69
2021/07/11 11:44:45;;;;;;;1.17;1.10;;;30.10;58.30;29.60;96614.00;;;;5105696;28;20207;-68
2021/07/11 11:47:37;;;;;;;1.30;1.20;;;30.10;57.50;29.30;96607.00;;;;5108929;28;20209;-68
2021/07/11 11:50:26;;;;;;;1.55;1.38;;;30.00;57.50;29.10;96638.00;;;;5107557;28;20206;-69
2021/07/11 11:53:17;;;;;;;1.70;1.45;;;29.90;58.50;30.50;96600.00;;;;5107517;28;20984;-67
2021/07/11 11:56:05;;;;;;;1.92;1.48;;;29.90;58.20;31.90;96593.00;;;;5098295;28;20214;-69
2021/07/11 11:59:03;;;;;;;2.20;1.40;;;30.40;59.20;32.80;96588.00;;;;5097630;28;20219;-69
2021/07/11 12:01:59;;;;;;;1.77;1.60;;;31.10;58.80;32.70;96585.00;;;;5102358;28;20247;-69
2021/07/11 12:04:48;;;;;;;1.42;1.20;;;31.80;57.30;31.60;96596.00;;;;5108937;28;20205;-66
2021/07/11 12:07:37;;;;;;;1.38;1.15;;;32.10;55.20;29.50;96647.00;;;;5101959;28;20228;-69
2021/07/11 12:10:28;;;;;;;2.38;1.90;;;31.50;54.80;29.80;96654.00;;;;5100329;28;20206;-71
2021/07/11 12:13:24;;;;;;;4.63;1.70;;;30.90;55.40;29.80;96664.00;;;;5097372;28;20236;-68
2021/07/11 12:16:15;;;;;;;1.45;1.30;;;30.50;56.40;29.90;96668.00;;;;5090459;28;20203;-67
2021/07/11 12:19:09;;;;;;;1.90;1.55;;;30.20;56.80;29.40;96664.00;;;;5095563;28;20274;-67
2021/07/11 12:21:58;;;;;;;2.63;1.52;;;30.00;56.50;29.10;96670.00;;;;5101119;28;20230;-67
2021/07/11 12:24:49;;;;;;;1.65;1.55;;;29.70;56.80;28.00;96664.00;;;;5106812;28;20231;-67
2021/07/11 12:27:41;;;;;;;1.60;1.50;;;29.20;55.90;27.70;96655.00;;;;5107865;28;20202;-66
2021/07/11 12:30:39;;;;;;;0.93;0.93;;;28.70;56.80;27.80;96654.00;;;;5106827;28;20209;-66
2021/07/11 12:33:30;;;;;;;2.83;1.53;;;28.40;57.70;28.20;96650.00;;;;5106580;28;20657;-66
2021/07/11 12:36:20;;;;;;;3.40;1.50;;;28.30;58.80;28.60;96651.00;;;;5105707;28;20214;-66
2021/07/11 12:39:17;;;;;;;3.30;1.33;;;28.30;59.20;28.80;96652.00;;;;5097070;28;20247;-68
2021/07/11 12:42:20;;;;;;;1.10;0.93;;;28.40;60.00;28.80;96646.00;;;;5106510;28;20271;-68